Time;durP1;ratioP1;P1;durP2;ratioP2;P2;SDS_P1;SDS_P2;PMS_P1;PMS_P2;Temp;Humidity;BMP_temperature;BMP_pressure;BME280_temperature;BME280_humidity;BME280_pressure;Samples;Min_cycle;Max_cycle;Signal;HPM_P1;HPM_P2
2022/07/13 00:01:34;;;;;;;3.50;2.63;;;19.20;99.90;;;;;;5037395;28;20024;-78
2022/07/13 00:04:00;;;;;;;3.35;2.83;;;19.20;99.90;;;;;;5034334;28;20087;-78
2022/07/13 00:06:26;;;;;;;4.82;3.08;;;19.20;99.90;;;;;;5017821;28;20044;-77
2022/07/13 00:08:52;;;;;;;3.85;3.20;;;19.20;99.90;;;;;;5014768;28;20037;-78
2022/07/13 00:11:18;;;;;;;5.18;3.22;;;19.20;99.90;;;;;;5022833;28;20521;-77
2022/07/13 00:13:43;;;;;;;3.65;2.83;;;19.20;99.90;;;;;;5039453;28;20044;-77
2022/07/13 00:16:09;;;;;;;3.33;2.85;;;19.20;99.90;;;;;;5040067;28;20045;-78
2022/07/13 00:18:35;;;;;;;3.28;2.97;;;19.10;99.90;;;;;;5035833;28;20090;-78
2022/07/13 00:21:00;;;;;;;3.60;3.22;;;19.10;99.90;;;;;;5018804;28;20031;-78
2022/07/13 00:23:26;;;;;;;3.55;2.70;;;19.00;99.90;;;;;;5018987;28;22450;-78
2022/07/13 00:25:52;;;;;;;3.42;3.10;;;19.00;99.90;;;;;;5032027;28;20054;-77
2022/07/13 00:28:17;;;;;;;4.35;3.30;;;19.00;99.90;;;;;;5016877;28;20072;-78
2022/07/13 00:30:43;;;;;;;3.55;3.05;;;18.90;99.90;;;;;;5035404;28;20021;-77
2022/07/13 00:33:09;;;;;;;5.38;3.67;;;18.90;99.90;;;;;;5035578;28;20067;-78
2022/07/13 00:35:35;;;;;;;3.10;2.90;;;18.90;99.90;;;;;;5037573;28;20028;-78
2022/07/13 00:38:00;;;;;;;3.47;3.03;;;18.90;99.90;;;;;;5038831;28;20406;-78
2022/07/13 00:40:27;;;;;;;4.53;3.08;;;18.90;99.90;;;;;;5020950;28;20075;-78
2022/07/13 00:42:53;;;;;;;5.80;3.47;;;18.90;99.90;;;;;;5020742;28;20128;-78
2022/07/13 00:45:19;;;;;;;3.55;2.70;;;18.90;99.90;;;;;;5039037;28;20124;-77
2022/07/13 00:47:47;;;;;;;8.45;3.42;;;18.90;99.90;;;;;;5035396;28;20025;-78
2022/07/13 00:50:13;;;;;;;6.53;2.95;;;18.90;99.90;;;;;;5039622;28;20465;-77
2022/07/13 00:52:39;;;;;;;4.20;3.00;;;18.80;99.90;;;;;;5036774;28;20052;-78
2022/07/13 00:55:09;;;;;;;3.60;2.58;;;18.80;99.90;;;;;;5037232;28;20408;-78
2022/07/13 00:57:36;;;;;;;3.78;3.08;;;18.80;99.90;;;;;;5053753;28;20048;-78
2022/07/13 01:00:09;;;;;;;3.05;2.75;;;18.80;99.90;;;;;;5032451;28;20033;-78
2022/07/13 01:02:45;;;;;;;3.25;2.78;;;18.70;99.90;;;;;;5038461;28;20029;-78
2022/07/13 01:05:12;;;;;;;4.70;3.05;;;18.70;99.90;;;;;;5027851;28;20438;-78
2022/07/13 01:07:39;;;;;;;3.30;3.00;;;18.70;99.90;;;;;;5018954;28;20029;-78
2022/07/13 01:10:07;;;;;;;4.45;3.47;;;18.60;99.90;;;;;;5036649;28;20055;-77
2022/07/13 01:12:34;;;;;;;3.90;3.20;;;18.60;99.90;;;;;;5020389;28;20033;-78
2022/07/13 01:15:00;;;;;;;4.05;3.22;;;18.60;99.90;;;;;;5035969;28;20488;-77
2022/07/13 01:17:26;;;;;;;2.58;2.38;;;18.60;99.90;;;;;;5015283;28;20085;-78
2022/07/13 01:19:53;;;;;;;3.05;2.85;;;18.70;99.90;;;;;;5015370;28;20040;-77
2022/07/13 01:22:26;;;;;;;3.20;2.90;;;18.60;99.90;;;;;;5015612;28;20026;-78
2022/07/13 01:24:55;;;;;;;3.65;3.35;;;18.70;99.90;;;;;;5015065;28;20037;-77
2022/07/13 01:27:21;;;;;;;4.35;2.90;;;18.70;99.90;;;;;;5002690;28;20033;-78
2022/07/13 01:29:47;;;;;;;4.20;3.42;;;18.70;99.90;;;;;;5017273;28;20120;-78
2022/07/13 01:32:13;;;;;;;4.72;3.00;;;18.60;99.90;;;;;;5017377;28;20454;-77
2022/07/13 01:34:39;;;;;;;5.97;3.10;;;18.60;99.90;;;;;;5013718;28;20116;-78
2022/07/13 01:37:05;;;;;;;3.05;2.70;;;18.60;99.90;;;;;;4996676;28;20030;-77
2022/07/13 01:39:30;;;;;;;3.40;3.10;;;18.60;99.90;;;;;;4994905;28;20255;-78
2022/07/13 01:41:56;;;;;;;4.25;2.78;;;18.60;99.90;;;;;;5018305;28;20034;-78
2022/07/13 01:44:22;;;;;;;6.32;3.72;;;18.50;99.90;;;;;;5017896;28;20128;-78
2022/07/13 01:46:47;;;;;;;3.30;3.00;;;18.50;99.90;;;;;;4991073;28;20033;-78
2022/07/13 01:49:13;;;;;;;5.47;3.38;;;18.50;99.90;;;;;;5018632;28;20076;-78
2022/07/13 01:51:39;;;;;;;3.42;3.05;;;18.50;99.90;;;;;;4991560;28;20031;-78
2022/07/13 01:54:05;;;;;;;4.95;3.38;;;18.50;99.90;;;;;;5015061;28;20033;-78
2022/07/13 01:56:32;;;;;;;3.38;3.17;;;18.50;99.90;;;;;;4997727;28;20742;-77
2022/07/13 01:58:59;;;;;;;4.05;3.15;;;18.50;99.90;;;;;;5010641;28;20029;-77
2022/07/13 02:01:25;;;;;;;3.47;3.05;;;18.50;99.90;;;;;;5014413;28;20116;-78
2022/07/13 02:03:50;;;;;;;4.07;3.55;;;18.40;99.90;;;;;;5015339;28;20072;-78
2022/07/13 02:06:16;;;;;;;5.40;3.28;;;18.40;99.90;;;;;;5016671;28;20743;-77
2022/07/13 02:08:42;;;;;;;4.10;3.65;;;18.30;99.90;;;;;;5012733;28;20112;-77
2022/07/13 02:11:07;;;;;;;4.53;3.50;;;18.40;99.90;;;;;;5009282;28;20111;-78
2022/07/13 02:13:33;;;;;;;4.43;3.28;;;18.30;99.90;;;;;;4999600;28;20022;-77
2022/07/13 02:15:59;;;;;;;4.07;3.70;;;18.30;99.90;;;;;;5003708;28;20459;-78
2022/07/13 02:18:25;;;;;;;3.78;3.47;;;18.20;99.90;;;;;;5045279;28;20525;-77
2022/07/13 02:20:51;;;;;;;3.45;3.15;;;18.20;99.90;;;;;;5032155;28;20115;-78
2022/07/13 02:23:16;;;;;;;3.92;3.60;;;18.20;99.90;;;;;;5013770;28;20040;-78
2022/07/13 02:25:42;;;;;;;4.25;3.63;;;18.20;99.90;;;;;;5012919;28;20048;-77
2022/07/13 02:28:08;;;;;;;6.95;3.83;;;18.20;99.90;;;;;;5034159;28;20090;-77
2022/07/13 02:30:34;;;;;;;4.22;3.60;;;18.20;99.90;;;;;;5034364;28;20029;-77
2022/07/13 02:33:00;;;;;;;3.70;3.40;;;18.10;99.90;;;;;;5021664;28;20055;-77
2022/07/13 02:35:26;;;;;;;4.85;3.33;;;18.10;99.90;;;;;;5020777;28;20025;-78
2022/07/13 02:37:52;;;;;;;5.47;3.65;;;18.10;99.90;;;;;;5017881;28;20029;-77
2022/07/13 02:40:17;;;;;;;4.25;3.85;;;18.00;99.90;;;;;;5014287;28;20061;-78
2022/07/13 02:42:44;;;;;;;4.18;3.50;;;18.10;99.90;;;;;;5016448;28;20057;-77
2022/07/13 02:45:10;;;;;;;3.88;3.58;;;18.00;99.90;;;;;;5016963;28;20740;-77
2022/07/13 02:47:36;;;;;;;6.07;4.32;;;18.00;99.90;;;;;;5019191;28;20101;-77
2022/07/13 02:50:02;;;;;;;3.88;3.50;;;18.00;99.90;;;;;;5034833;28;20127;-78
2022/07/13 02:52:28;;;;;;;5.43;4.00;;;18.00;99.90;;;;;;5033699;28;20025;-77
2022/07/13 02:54:54;;;;;;;4.47;3.97;;;18.00;99.90;;;;;;5033408;28;20058;-78
2022/07/13 02:57:19;;;;;;;5.20;4.47;;;18.00;99.90;;;;;;5041089;28;20147;-77
2022/07/13 02:59:45;;;;;;;4.35;3.95;;;18.10;99.90;;;;;;5027307;28;20031;-78
2022/07/13 03:02:11;;;;;;;6.00;4.13;;;18.00;99.90;;;;;;5018670;28;20095;-78
2022/07/13 03:04:37;;;;;;;4.78;3.90;;;18.00;99.90;;;;;;5034453;28;20056;-78
2022/07/13 03:07:03;;;;;;;6.00;3.50;;;18.00;99.90;;;;;;5035436;28;20100;-77
2022/07/13 03:09:29;;;;;;;4.90;3.53;;;18.00;99.90;;;;;;5034698;28;20123;-77
2022/07/13 03:11:55;;;;;;;5.78;3.65;;;18.00;99.90;;;;;;5035151;28;20040;-77
2022/07/13 03:14:20;;;;;;;4.70;3.63;;;18.00;99.90;;;;;;5007949;28;20025;-78
2022/07/13 03:16:46;;;;;;;4.55;4.10;;;18.10;99.90;;;;;;5037756;28;20135;-78
2022/07/13 03:19:12;;;;;;;9.07;4.30;;;18.10;99.90;;;;;;5038518;28;20052;-77
2022/07/13 03:21:38;;;;;;;4.07;3.60;;;18.00;99.90;;;;;;5037355;28;20108;-78
2022/07/13 03:24:04;;;;;;;5.65;4.00;;;18.10;99.90;;;;;;5034370;28;20099;-77
2022/07/13 03:26:30;;;;;;;3.95;3.63;;;18.00;99.90;;;;;;5036998;28;20033;-77
2022/07/13 03:28:55;;;;;;;5.55;3.63;;;18.00;99.90;;;;;;5038049;28;20033;-78
2022/07/13 03:31:22;;;;;;;4.05;3.75;;;18.00;99.90;;;;;;5037368;28;20567;-77
2022/07/13 03:33:48;;;;;;;6.25;3.55;;;18.00;99.90;;;;;;5034237;28;20030;-77
2022/07/13 03:36:14;;;;;;;4.90;3.80;;;17.90;99.90;;;;;;5036634;28;20118;-78
2022/07/13 03:38:40;;;;;;;4.72;3.90;;;17.90;99.90;;;;;;5036805;28;20040;-77
2022/07/13 03:41:05;;;;;;;4.25;3.78;;;17.90;99.90;;;;;;5037589;28;20439;-78
2022/07/13 03:43:31;;;;;;;4.22;3.47;;;17.90;99.90;;;;;;5038617;28;20051;-77
2022/07/13 03:45:57;;;;;;;4.65;4.05;;;17.90;99.90;;;;;;5036852;28;20131;-77
2022/07/13 03:48:23;;;;;;;5.18;3.75;;;17.90;99.90;;;;;;5033209;28;20121;-77
2022/07/13 03:50:49;;;;;;;5.00;4.50;;;17.80;99.90;;;;;;5036312;28;20032;-78
2022/07/13 03:53:15;;;;;;;5.53;3.97;;;17.80;99.90;;;;;;5038646;28;20040;-77
2022/07/13 03:55:42;;;;;;;4.80;3.78;;;17.80;99.90;;;;;;5042891;28;20059;-78
2022/07/13 03:58:10;;;;;;;5.65;3.97;;;17.70;99.90;;;;;;5040500;28;20056;-77
2022/07/13 04:00:36;;;;;;;7.53;3.85;;;17.70;99.90;;;;;;5037329;28;20028;-77
2022/07/13 04:03:03;;;;;;;4.72;3.83;;;17.70;99.90;;;;;;5036948;28;20041;-78
2022/07/13 04:05:29;;;;;;;4.35;3.90;;;17.60;99.90;;;;;;5038062;28;20157;-77
2022/07/13 04:07:55;;;;;;;5.00;3.88;;;17.50;99.90;;;;;;5038328;28;20107;-76
2022/07/13 04:10:21;;;;;;;6.15;4.13;;;17.50;99.90;;;;;;5035590;28;20033;-78
2022/07/13 04:12:48;;;;;;;5.43;4.10;;;17.40;99.90;;;;;;5033728;28;20376;-77
2022/07/13 04:15:14;;;;;;;6.90;4.25;;;17.40;99.90;;;;;;5036289;28;20067;-77
2022/07/13 04:17:41;;;;;;;6.55;4.55;;;17.40;99.90;;;;;;5031600;28;20075;-78
2022/07/13 04:20:10;;;;;;;4.72;4.35;;;17.40;99.90;;;;;;5029321;28;20057;-78
2022/07/13 04:22:36;;;;;;;5.97;4.15;;;17.40;99.90;;;;;;5039256;28;20136;-77
2022/07/13 04:25:03;;;;;;;5.40;4.65;;;17.40;99.90;;;;;;5036106;28;20052;-78
2022/07/13 04:27:29;;;;;;;5.55;4.82;;;17.40;99.90;;;;;;5039147;28;20029;-77
2022/07/13 04:29:54;;;;;;;4.82;4.28;;;17.30;99.90;;;;;;5037507;28;20036;-77
2022/07/13 04:32:20;;;;;;;5.90;4.40;;;17.20;99.90;;;;;;5036467;28;20060;-77
2022/07/13 04:34:47;;;;;;;4.25;3.95;;;17.20;99.90;;;;;;5034986;28;20124;-77
2022/07/13 04:37:12;;;;;;;4.40;4.00;;;17.10;99.90;;;;;;5034455;28;20052;-77
2022/07/13 04:39:42;;;;;;;4.38;3.97;;;17.20;99.90;;;;;;5036420;28;20361;-78
2022/07/13 04:42:08;;;;;;;5.15;4.40;;;17.20;99.90;;;;;;5047370;28;20078;-77
2022/07/13 04:44:34;;;;;;;9.10;4.63;;;17.30;99.90;;;;;;5031334;28;20136;-78
2022/07/13 04:46:59;;;;;;;5.90;4.25;;;17.40;99.90;;;;;;5034479;28;20100;-78
2022/07/13 04:49:25;;;;;;;5.07;4.35;;;17.50;99.90;;;;;;5037851;28;20400;-78
2022/07/13 04:51:51;;;;;;;6.45;3.88;;;17.60;99.90;;;;;;5039330;28;20114;-77
2022/07/13 04:54:21;;;;;;;4.80;4.32;;;17.60;99.90;;;;;;5039102;28;20081;-78
2022/07/13 04:56:48;;;;;;;4.07;3.75;;;17.70;99.90;;;;;;5043984;28;20025;-77
2022/07/13 04:59:14;;;;;;;6.07;3.92;;;17.80;99.90;;;;;;5033641;28;20049;-78
2022/07/13 05:01:40;;;;;;;3.92;3.63;;;17.90;99.90;;;;;;5029987;28;20037;-78
2022/07/13 05:04:06;;;;;;;4.50;4.07;;;18.00;99.90;;;;;;5031481;28;20033;-77
2022/07/13 05:06:32;;;;;;;5.45;3.88;;;18.00;99.90;;;;;;5036813;28;20135;-76
2022/07/13 05:08:59;;;;;;;4.20;3.25;;;18.10;99.90;;;;;;5034318;28;20136;-78
2022/07/13 05:11:24;;;;;;;6.32;4.15;;;18.10;99.90;;;;;;5037885;28;20021;-76
2022/07/13 05:13:51;;;;;;;3.80;3.50;;;18.20;99.90;;;;;;5036380;28;20040;-78
2022/07/13 05:16:18;;;;;;;4.80;3.20;;;18.20;99.90;;;;;;5030408;28;20129;-78
2022/07/13 05:18:44;;;;;;;4.65;3.63;;;18.20;99.90;;;;;;5036048;28;20028;-78
2022/07/13 05:21:10;;;;;;;4.15;3.85;;;18.20;99.90;;;;;;5033936;28;20629;-78
2022/07/13 05:23:37;;;;;;;4.95;3.95;;;18.30;99.90;;;;;;5035032;28;20179;-78
2022/07/13 05:26:04;;;;;;;4.25;3.92;;;18.30;99.90;;;;;;5037883;28;20025;-78
2022/07/13 05:28:33;;;;;;;6.80;4.15;;;18.40;99.90;;;;;;5037891;28;20029;-78
2022/07/13 05:30:58;;;;;;;6.18;4.35;;;18.40;99.90;;;;;;5037850;28;20127;-78
2022/07/13 05:33:25;;;;;;;6.60;4.53;;;18.50;99.90;;;;;;5032742;28;20032;-78
2022/07/13 05:35:50;;;;;;;5.50;3.67;;;18.60;99.90;;;;;;5035015;28;20820;-78
2022/07/13 05:38:16;;;;;;;5.32;4.30;;;18.60;99.90;;;;;;5036556;28;20180;-78
2022/07/13 05:40:42;;;;;;;4.63;4.15;;;18.70;99.90;;;;;;5032151;28;20547;-78
2022/07/13 05:43:08;;;;;;;5.72;4.30;;;18.90;99.90;;;;;;5024628;28;20056;-78
2022/07/13 05:45:34;;;;;;;6.28;4.35;;;19.00;99.90;;;;;;5029545;28;20388;-79
2022/07/13 05:47:59;;;;;;;6.60;4.32;;;19.10;99.90;;;;;;5037023;28;20029;-78
2022/07/13 05:50:25;;;;;;;5.78;4.25;;;19.20;99.90;;;;;;5040794;28;20114;-78
2022/07/13 05:52:51;;;;;;;5.93;4.00;;;19.40;99.90;;;;;;5035458;28;20932;-77
2022/07/13 05:55:17;;;;;;;5.68;4.38;;;19.40;99.90;;;;;;5037967;28;20032;-78
2022/07/13 05:57:44;;;;;;;7.00;4.57;;;19.60;99.90;;;;;;5045135;28;20031;-78
2022/07/13 06:00:13;;;;;;;4.70;4.30;;;19.80;99.90;;;;;;5036768;28;20602;-77
2022/07/13 06:02:42;;;;;;;6.43;4.47;;;19.90;99.90;;;;;;5037162;28;20037;-78
2022/07/13 06:05:09;;;;;;;4.20;3.80;;;20.00;99.90;;;;;;5028406;28;20123;-78
2022/07/13 06:07:35;;;;;;;4.43;3.63;;;20.10;99.90;;;;;;5037754;28;20061;-78
2022/07/13 06:10:01;;;;;;;4.22;3.50;;;20.30;99.90;;;;;;5029637;28;20139;-78
2022/07/13 06:12:27;;;;;;;3.50;3.20;;;20.40;99.90;;;;;;5031158;28;20098;-78
2022/07/13 06:14:53;;;;;;;6.20;3.60;;;20.50;99.90;;;;;;5039163;28;20393;-78
2022/07/13 06:17:22;;;;;;;4.85;4.45;;;20.50;99.90;;;;;;5030492;28;20049;-77
2022/07/13 06:19:49;;;;;;;6.55;3.70;;;20.70;99.90;;;;;;5035759;28;20105;-77
2022/07/13 06:22:15;;;;;;;7.57;3.70;;;20.80;99.90;;;;;;5032876;28;20051;-78
2022/07/13 06:24:41;;;;;;;5.78;4.15;;;20.90;99.90;;;;;;5030446;28;20077;-78
2022/07/13 06:27:08;;;;;;;4.90;3.85;;;20.90;99.90;;;;;;5036984;28;20047;-78
2022/07/13 06:29:34;;;;;;;8.75;3.97;;;20.90;99.90;;;;;;5034112;28;20040;-78
2022/07/13 06:32:00;;;;;;;5.65;3.40;;;21.00;99.90;;;;;;5033831;28;20208;-78
2022/07/13 06:34:26;;;;;;;5.78;3.33;;;21.10;99.90;;;;;;5027240;28;20117;-77
2022/07/13 06:36:52;;;;;;;4.00;3.45;;;21.20;99.90;;;;;;5032805;28;20270;-78
2022/07/13 06:39:18;;;;;;;3.13;2.80;;;21.40;99.90;;;;;;5022509;28;20037;-78
2022/07/13 06:41:45;;;;;;;4.43;2.97;;;21.60;99.90;;;;;;5026902;28;20523;-78
2022/07/13 06:44:11;;;;;;;4.28;2.95;;;21.70;99.90;;;;;;5031841;28;20036;-78
2022/07/13 06:46:37;;;;;;;3.80;2.97;;;21.90;99.90;;;;;;5037779;28;20044;-78
2022/07/13 06:49:03;;;;;;;4.50;2.78;;;22.10;99.90;;;;;;5034976;28;20025;-78
2022/07/13 06:51:29;;;;;;;4.15;3.75;;;22.40;99.90;;;;;;5027021;28;20090;-78
2022/07/13 06:53:55;;;;;;;5.63;3.55;;;22.60;99.90;;;;;;5030610;28;20863;-81
2022/07/13 06:56:20;;;;;;;4.78;3.20;;;22.80;99.90;;;;;;5035783;28;20060;-79
2022/07/13 06:58:47;;;;;;;4.05;2.88;;;22.90;99.90;;;;;;5039090;28;20105;-79
2022/07/13 07:01:12;;;;;;;5.07;2.90;;;22.90;99.90;;;;;;5034934;28;20789;-80
2022/07/13 07:03:38;;;;;;;4.38;3.38;;;23.10;99.90;;;;;;5030471;28;20101;-80
2022/07/13 07:06:05;;;;;;;4.57;4.22;;;23.40;99.90;;;;;;4708710;28;10000502;-81
2022/07/13 07:08:31;;;;;;;14.40;11.57;;;23.50;99.90;;;;;;5026565;28;20297;-80
2022/07/13 07:10:56;;;;;;;10.75;4.72;;;23.80;99.90;;;;;;5031754;28;20041;-80
2022/07/13 07:13:22;;;;;;;7.32;3.30;;;23.90;99.90;;;;;;5029682;28;20044;-81
2022/07/13 07:15:48;;;;;;;5.10;3.08;;;24.20;99.90;;;;;;5030861;28;20052;-80
2022/07/13 07:18:14;;;;;;;4.88;3.00;;;24.20;99.90;;;;;;5033466;28;20531;-80
2022/07/13 07:20:40;;;;;;;6.10;3.10;;;24.20;99.90;;;;;;5034773;28;20032;-80
2022/07/13 07:23:06;;;;;;;4.68;2.83;;;24.50;99.90;;;;;;5039046;28;20033;-80
2022/07/13 07:25:32;;;;;;;6.03;2.97;;;24.80;99.90;;;;;;5028271;28;20064;-81
2022/07/13 07:27:57;;;;;;;7.50;2.88;;;24.90;99.90;;;;;;5032977;28;20208;-81
2022/07/13 07:30:23;;;;;;;4.50;2.60;;;25.20;99.90;;;;;;5031135;28;20032;-81
2022/07/13 07:32:49;;;;;;;8.15;3.20;;;25.60;99.90;;;;;;5027593;28;20093;-81
2022/07/13 07:35:14;;;;;;;9.68;2.90;;;25.90;99.90;;;;;;5027909;28;20151;-81
2022/07/13 07:37:40;;;;;;;8.38;2.83;;;26.20;99.90;;;;;;5029200;28;20028;-78
2022/07/13 07:40:07;;;;;;;64.53;44.47;;;26.60;99.90;;;;;;5033796;28;20025;-79
2022/07/13 07:42:33;;;;;;;14.77;4.50;;;26.60;99.90;;;;;;5033049;28;20437;-77
2022/07/13 07:44:59;;;;;;;5.10;3.22;;;26.90;99.90;;;;;;5026502;28;20088;-78
2022/07/13 07:47:25;;;;;;;4.07;2.60;;;27.00;99.90;;;;;;5026994;28;20512;-78
2022/07/13 07:49:54;;;;;;;2.25;1.90;;;27.40;99.90;;;;;;5026147;28;20835;-78
2022/07/13 07:52:21;;;;;;;3.67;1.88;;;27.40;99.90;;;;;;5026784;28;20028;-77
2022/07/13 07:54:47;;;;;;;4.28;2.38;;;28.00;99.90;;;;;;5027782;28;20051;-78
2022/07/13 07:57:13;;;;;;;7.07;3.72;;;28.00;99.90;;;;;;5019602;28;20044;-78
2022/07/13 07:59:39;;;;;;;2.92;2.55;;;28.20;99.90;;;;;;5040126;28;20032;-78
2022/07/13 08:02:05;;;;;;;6.57;2.30;;;28.50;99.90;;;;;;5025395;28;20060;-78
2022/07/13 08:04:31;;;;;;;6.95;2.25;;;28.60;99.90;;;;;;5025672;28;20037;-78
2022/07/13 08:06:57;;;;;;;7.90;2.20;;;28.50;99.90;;;;;;5034880;28;20035;-78
2022/07/13 08:09:23;;;;;;;2.25;2.03;;;29.10;99.30;;;;;;5039165;28;20040;-78
2022/07/13 08:11:48;;;;;;;2.85;1.80;;;29.30;96.70;;;;;;5030715;28;20025;-78
2022/07/13 08:14:14;;;;;;;5.80;2.20;;;30.00;96.30;;;;;;4680409;28;9999973;-78
2022/07/13 08:16:40;;;;;;;4.07;2.00;;;30.10;93.50;;;;;;5025618;28;20088;-78
2022/07/13 08:19:06;;;;;;;5.50;2.22;;;32.50;86.00;;;;;;5024789;28;20643;-78
2022/07/13 08:21:31;;;;;;;7.53;2.28;;;33.20;79.90;;;;;;5025198;28;20044;-78
2022/07/13 08:23:57;;;;;;;11.73;2.90;;;35.50;56.70;;;;;;5023477;28;20119;-77
2022/07/13 08:26:25;;;;;;;9.23;2.28;;;37.10;53.10;;;;;;5021573;28;20043;-76
2022/07/13 08:28:52;;;;;;;4.28;1.52;;;38.10;47.20;;;;;;5027723;28;20884;-76
2022/07/13 08:31:22;;;;;;;4.10;1.70;;;38.20;43.30;;;;;;5026876;28;20033;-76
2022/07/13 08:39:17;;;;;;;2.15;1.30;;;40.50;42.40;;;;;;5036300;28;20063;-78
2022/07/13 08:41:43;;;;;;;1.63;1.52;;;40.20;38.50;;;;;;5035737;28;20052;-80
2022/07/13 08:44:09;;;;;;;4.95;1.70;;;40.20;36.70;;;;;;5037755;28;20053;-84
2022/07/13 08:46:35;;;;;;;3.75;1.33;;;40.90;37.60;;;;;;5035016;28;20036;-77
2022/07/13 08:49:02;;;;;;;3.53;1.45;;;41.20;37.90;;;;;;5027646;28;20052;-80
2022/07/13 08:51:31;;;;;;;3.45;1.55;;;39.60;38.00;;;;;;5033182;28;20389;-83
2022/07/13 08:53:57;;;;;;;3.20;1.63;;;39.20;39.70;;;;;;5034084;28;20024;-79
2022/07/13 08:56:23;;;;;;;2.20;1.67;;;41.20;36.90;;;;;;5030209;28;20025;-79
2022/07/13 08:58:49;;;;;;;1.83;1.25;;;40.50;33.10;;;;;;5020348;28;20032;-79
2022/07/13 09:01:15;;;;;;;2.35;1.33;;;38.60;39.60;;;;;;5029460;28;20025;-79
2022/07/13 09:03:42;;;;;;;2.25;1.50;;;37.20;39.10;;;;;;5030222;28;20037;-79
2022/07/13 09:06:08;;;;;;;3.22;1.65;;;37.50;38.30;;;;;;5030795;28;20805;-78
2022/07/13 09:08:42;;;;;;;3.55;1.52;;;37.60;41.30;;;;;;5027602;28;20491;-78
2022/07/13 09:11:08;;;;;;;4.75;1.60;;;37.30;42.00;;;;;;5030397;28;20076;-78
2022/07/13 09:13:44;;;;;;;3.40;1.60;;;36.80;38.50;;;;;;5028168;28;20702;-78
2022/07/13 09:16:22;;;;;;;3.28;1.50;;;36.10;39.00;;;;;;5027394;28;20068;-78
2022/07/13 09:18:51;;;;;;;4.00;1.48;;;35.30;43.60;;;;;;5031696;28;20078;-78
2022/07/13 09:21:18;;;;;;;3.88;1.30;;;34.80;44.30;;;;;;5030922;28;20032;-79
2022/07/13 09:23:52;;;;;;;2.05;1.35;;;34.10;43.90;;;;;;5031877;28;20034;-83
2022/07/13 09:26:18;;;;;;;2.00;1.27;;;33.00;46.50;;;;;;4680868;28;10000041;-83
2022/07/13 09:28:47;;;;;;;2.65;1.50;;;31.90;49.30;;;;;;5033294;28;20029;-83
2022/07/13 09:31:14;;;;;;;2.08;1.70;;;31.00;56.20;;;;;;5042503;28;20224;-84
2022/07/13 09:33:43;;;;;;;1.55;1.40;;;30.90;62.90;;;;;;5024691;28;20055;-84
2022/07/13 09:36:14;;;;;;;3.95;1.40;;;30.90;69.40;;;;;;5030056;28;21134;-82
2022/07/13 09:38:43;;;;;;;2.00;1.90;;;31.00;66.70;;;;;;5030687;28;20094;-82
2022/07/13 09:41:19;;;;;;;3.40;1.60;;;31.00;60.20;;;;;;5037453;28;20196;-83
2022/07/13 09:47:03;;;;;;;4.07;1.85;;;31.70;57.90;;;;;;5037711;28;20138;-84
2022/07/13 09:49:30;;;;;;;3.50;1.50;;;32.60;52.00;;;;;;5032483;28;20021;-83
2022/07/13 09:51:59;;;;;;;6.80;2.47;;;33.60;47.20;;;;;;5031731;28;20040;-83
2022/07/13 09:54:30;;;;;;;8.00;2.38;;;33.30;48.70;;;;;;5026339;28;20111;-86
2022/07/13 09:57:01;;;;;;;4.35;1.80;;;33.50;49.30;;;;;;5029592;28;20032;-83
2022/07/13 09:59:31;;;;;;;4.53;2.00;;;33.40;47.30;;;;;;5026399;28;20500;-83
2022/07/13 10:01:57;;;;;;;2.95;1.88;;;33.10;47.10;;;;;;5029266;28;20029;-83
2022/07/13 10:04:23;;;;;;;2.45;1.58;;;33.30;51.30;;;;;;5036859;28;21001;-83
2022/07/13 10:06:50;;;;;;;6.38;2.10;;;34.30;50.70;;;;;;5029298;28;20052;-83
2022/07/13 10:09:22;;;;;;;15.90;2.40;;;36.30;47.70;;;;;;5030127;28;20474;-83
2022/07/13 10:11:48;;;;;;;14.00;2.17;;;37.80;42.10;;;;;;5045483;28;20472;-83
2022/07/13 10:14:17;;;;;;;3.40;1.25;;;38.50;37.00;;;;;;5028883;28;20109;-83
2022/07/13 10:16:44;;;;;;;2.30;1.40;;;39.60;36.40;;;;;;5027605;28;20056;-83
2022/07/13 10:19:11;;;;;;;2.28;1.15;;;40.90;36.90;;;;;;5042870;28;20188;-84
2022/07/13 10:22:14;;;;;;;1.98;1.10;;;40.30;36.20;;;;;;5025946;28;20568;-84
2022/07/13 10:24:53;;;;;;;1.45;1.00;;;40.60;33.80;;;;;;5018689;28;20103;-83
2022/07/13 10:27:27;;;;;;;2.90;1.08;;;39.90;35.50;;;;;;5024073;28;20032;-84
2022/07/13 10:30:02;;;;;;;2.05;1.67;;;39.70;34.80;;;;;;5022654;28;20044;-83
2022/07/13 10:32:30;;;;;;;2.25;1.20;;;40.00;33.70;;;;;;5032258;28;20017;-83
2022/07/13 10:35:02;;;;;;;3.65;1.13;;;38.90;31.50;;;;;;5027728;28;20686;-83
2022/07/13 10:37:28;;;;;;;1.55;1.00;;;38.10;34.80;;;;;;5032752;28;20116;-84
2022/07/13 10:40:11;;;;;;;2.92;1.80;;;38.50;36.10;;;;;;5030867;28;20127;-84
2022/07/13 10:42:58;;;;;;;7.55;2.00;;;38.00;37.50;;;;;;5027203;28;20056;-83
2022/07/13 10:45:34;;;;;;;5.15;1.98;;;37.00;38.60;;;;;;5030137;28;20794;-83
2022/07/13 10:48:02;;;;;;;5.10;1.70;;;36.50;43.50;;;;;;5046334;28;20028;-83
2022/07/13 10:50:34;;;;;;;3.80;1.55;;;35.60;42.90;;;;;;5032639;28;20034;-83
2022/07/13 10:53:00;;;;;;;3.53;1.50;;;35.30;43.90;;;;;;5030610;28;20029;-83
2022/07/13 10:55:32;;;;;;;6.47;1.70;;;35.40;43.70;;;;;;5033741;28;20578;-83
2022/07/13 10:58:19;;;;;;;4.93;1.27;;;34.60;43.30;;;;;;5030989;28;20055;-81
2022/07/13 11:00:45;;;;;;;4.40;1.50;;;34.00;45.10;;;;;;5032252;28;20029;-83
2022/07/13 11:03:43;;;;;;;4.35;1.42;;;33.50;45.70;;;;;;5037361;28;20028;-81
2022/07/13 11:06:17;;;;;;;1.70;1.40;;;32.80;47.70;;;;;;5032449;28;20120;-81
2022/07/13 11:08:43;;;;;;;3.15;1.33;;;32.30;49.80;;;;;;5027698;28;20029;-82
2022/07/13 11:11:19;;;;;;;4.22;1.50;;;32.00;49.90;;;;;;5033642;28;20052;-82
2022/07/13 11:13:46;;;;;;;1.50;1.17;;;31.90;56.00;;;;;;5032408;28;20041;-82
2022/07/13 11:16:13;;;;;;;4.32;1.50;;;32.80;52.10;;;;;;5037563;28;20143;-82
2022/07/13 11:18:41;;;;;;;2.20;1.13;;;33.20;52.10;;;;;;5036535;28;20037;-82
2022/07/13 11:21:18;;;;;;;4.20;1.27;;;33.00;49.10;;;;;;5039072;28;20236;-83
2022/07/13 11:26:43;;;;;;;3.78;1.42;;;33.10;51.80;;;;;;5033184;28;20048;-81
2022/07/13 11:29:27;;;;;;;2.70;1.40;;;33.10;47.00;;;;;;5033969;28;20028;-82
2022/07/13 11:31:57;;;;;;;9.40;1.95;;;32.60;49.60;;;;;;5037776;28;20059;-83
2022/07/13 11:34:24;;;;;;;2.58;1.40;;;32.30;51.10;;;;;;5037542;28;20047;-83
2022/07/13 11:36:52;;;;;;;3.78;1.13;;;31.70;51.40;;;;;;5034475;28;20111;-83
2022/07/13 11:39:30;;;;;;;2.85;1.40;;;31.60;51.00;;;;;;5038360;28;20021;-84
2022/07/13 11:41:58;;;;;;;2.45;1.10;;;31.40;52.10;;;;;;5036945;28;20059;-83
2022/07/13 11:44:29;;;;;;;3.13;1.20;;;31.40;55.10;;;;;;5039602;28;20155;-83
2022/07/13 11:46:56;;;;;;;1.20;1.05;;;31.90;53.80;;;;;;5039485;28;20016;-83
2022/07/13 11:49:23;;;;;;;2.10;1.20;;;32.60;56.30;;;;;;5037851;28;20492;-82
2022/07/13 11:51:49;;;;;;;3.30;1.13;;;33.00;50.80;;;;;;5039084;28;20077;-83
2022/07/13 11:54:17;;;;;;;3.10;1.40;;;33.40;46.60;;;;;;5040544;28;20191;-82
2022/07/13 11:56:52;;;;;;;1.30;1.20;;;33.50;48.30;;;;;;5041446;28;20108;-83
2022/07/13 11:59:38;;;;;;;1.75;1.15;;;33.60;46.60;;;;;;5041415;28;20097;-83
2022/07/13 12:02:08;;;;;;;1.65;1.10;;;33.80;44.60;;;;;;5040488;28;20377;-82
2022/07/13 12:04:34;;;;;;;0.88;0.85;;;34.10;44.30;;;;;;5039537;28;20037;-82
2022/07/13 12:07:18;;;;;;;2.83;1.20;;;34.20;46.20;;;;;;5037390;28;20099;-83
2022/07/13 12:10:10;;;;;;;3.17;1.15;;;33.90;49.60;;;;;;4694825;28;10001488;-82
2022/07/13 12:12:37;;;;;;;2.85;1.25;;;34.20;45.00;;;;;;5041677;28;20253;-83
2022/07/13 12:15:04;;;;;;;1.58;1.30;;;34.20;43.90;;;;;;5036853;28;20037;-83
2022/07/13 12:17:45;;;;;;;3.00;1.58;;;33.80;45.30;;;;;;5040419;28;20057;-83
2022/07/13 12:20:14;;;;;;;3.92;1.55;;;33.70;47.00;;;;;;5035563;28;20029;-82
2022/07/13 12:22:46;;;;;;;1.20;1.13;;;33.70;45.60;;;;;;5036315;28;20504;-82
2022/07/13 12:25:29;;;;;;;2.28;1.30;;;33.00;45.70;;;;;;5034071;28;20056;-81
2022/07/13 12:27:59;;;;;;;2.80;1.27;;;32.80;47.50;;;;;;5036749;28;20026;-82
2022/07/13 12:30:25;;;;;;;1.90;1.40;;;33.00;47.90;;;;;;5032500;28;20447;-82
2022/07/13 12:33:02;;;;;;;3.10;1.35;;;32.80;49.70;;;;;;5036893;28;20076;-82
2022/07/13 12:35:41;;;;;;;3.58;1.05;;;32.60;51.70;;;;;;5043451;28;20053;-81
2022/07/13 12:38:14;;;;;;;1.48;1.02;;;32.40;48.90;;;;;;5039091;28;20033;-81
2022/07/13 12:40:54;;;;;;;2.95;1.17;;;32.60;46.40;;;;;;5037100;28;20051;-81
2022/07/13 12:43:25;;;;;;;2.47;1.02;;;32.10;47.30;;;;;;5035155;28;20024;-82
2022/07/13 12:45:52;;;;;;;2.17;1.13;;;31.90;49.60;;;;;;5036818;28;20056;-82
2022/07/13 12:48:25;;;;;;;4.05;1.17;;;32.20;51.40;;;;;;5038999;28;20091;-82
2022/07/13 12:51:13;;;;;;;1.08;0.90;;;32.30;51.70;;;;;;5036982;28;20033;-82
2022/07/13 12:53:59;;;;;;;2.20;1.13;;;32.10;48.20;;;;;;5032940;28;20029;-82
2022/07/13 12:56:27;;;;;;;1.67;0.60;;;32.30;48.20;;;;;;5037798;28;20029;-82
2022/07/13 12:59:05;;;;;;;1.48;0.63;;;32.80;46.90;;;;;;5037440;28;20026;-83
2022/07/13 13:01:35;;;;;;;1.25;0.80;;;32.70;46.90;;;;;;5037839;28;20020;-83